Home > Products > Valid Products > MTR

000
SAUS45 KGGW 312150
MTRJDN
METAR KJDN 312148Z AUTO 04014G19KT M09/M12 A3020 RMK AO1 SLP271
P0001 T10941117





000
SAUS45 KGGW 312150
MTRJDN
METAR KJDN 312148Z AUTO 04014G19KT M09/M12 A3020 RMK AO1 SLP271
P0001 T10941117





000
SAUS45 KGGW 312049
MTRJDN
METAR KJDN 312048Z AUTO 04015KT M09/M12 A3017 RMK AO1 SLP263 P0001
60002 T10941117 53019





000
SAUS45 KGGW 311949
MTRJDN
METAR KJDN 311948Z AUTO 04017G23KT M07/M09 A3014 RMK AO1 PK WND
04026/1927 SLP249 P0001 T10721094





000
SAUS45 KGGW 311849
MTRJDN
METAR KJDN 311848Z AUTO 06011KT M04/M06 A3011 RMK AO1 SLP238
T10441061





000
SAUS45 KGGW 311749
MTRJDN
METAR KJDN 311748Z AUTO 05012KT M04/M06 A3011 RMK AO1 SLP235 P0001
60003 T10441056 11028 21050 53022





000
SAUS45 KGGW 311649
MTRJDN
METAR KJDN 311648Z AUTO 04011KT M04/M06 A3007 RMK AO1 SLP222 P0002
T10441056





000
SAUS45 KGGW 311549
MTRJDN
METAR KJDN 311548Z AUTO 06015KT M04/M06 A3004 RMK AO1 SLP210
T10441056





000
SAUS45 KGGW 311449
MTRJDN
METAR KJDN 311448Z AUTO 05011KT M04/M04 A3004 RMK AO1 SLP207
T10441044 53020





000
SAUS45 KGGW 311349
MTRJDN
METAR KJDN 311348Z AUTO 06013KT M04/M04 A3000 RMK AO1 SLP196
T10391044





000
SAUS45 KGGW 311249
MTRJDN
METAR KJDN 311248Z AUTO 08011KT M03/M03 A2999 RMK AO1 SLP189
T10281033





000
SAUS45 KGGW 311149
MTRJDN
METAR KJDN 311148Z AUTO 09014KT M03/M04 A2997 RMK AO1 SLP176
T10331039 11033 21056 58010





000
SAUS45 KGGW 311049
MTRJDN
METAR KJDN 311048Z AUTO 08013G19KT M04/M05 A2999 RMK AO1 SLP182
T10391050





000
SAUS45 KGGW 310949
MTRJDN
METAR KJDN 310948Z AUTO 08007KT M03/M05 A3000 RMK AO1 SLP183
T10331050





000
SAUS45 KGGW 310849
MTRJDN
METAR KJDN 310848Z AUTO 08005KT M05/M06 A3000 RMK AO1 SLP188
T10501061 56015





000
SAUS45 KGGW 310749
MTRJDN
METAR KJDN 310748Z AUTO 10004KT M04/M06 A3001 RMK AO1 SLP190
T10441061





000
SAUS45 KGGW 310649
MTRJDN
METAR KJDN 310648Z AUTO 11005KT M06/M07 A3003 RMK AO1 SLP201
T10561067 400781056





000
SAUS45 KGGW 310549
MTRJDN
METAR KJDN 310548Z AUTO 10003KT M04/M06 A3005 RMK AO1 SLP207
T10441061 10056 21044 56019





000
SAUS45 KGGW 310449
MTRJDN
METAR KJDN 310448Z AUTO 00000KT M03/M05 A3006 RMK AO1 SLP213
T10331050





000
SAUS45 KGGW 310350
MTRJDN
METAR KJDN 310348Z AUTO 07003KT M03/M04 A3008 RMK AO1 SLP222
T10281044





000
SAUS45 KGGW 310249
MTRJDN
METAR KJDN 310248Z AUTO 10003KT M01/M04 A3011 RMK AO1 SLP233
T10111039 58011





000
SAUS45 KGGW 310149
MTRJDN
METAR KJDN 310148Z AUTO 00000KT M02/M05 A3014 RMK AO1 SLP243
T10221050





000
SAUS45 KGGW 310049
MTRJDN
METAR KJDN 310048Z AUTO 00000KT 00/M04 A3015 RMK AO1 SLP246
T00001039





000
SAUS45 KGGW 302350
MTRJDN
METAR KJDN 302348Z AUTO 09003KT 06/M03 A3015 RMK AO1 SLP238
T00561033 10078 20033 56010





000
SAUS45 KGGW 302249
MTRJDN
METAR KJDN 302248Z AUTO 00000KT 07/M03 A3016 RMK AO1 SLP237
T00721033





000
SAUS45 KGGW 302149
MTRJDN
METAR KJDN 302148Z AUTO 00000KT 07/M03 A3017 RMK AO1 SLP241
T00721033





000
SAUS45 KGGW 302049
MTRJDN
METAR KJDN 302048Z AUTO 01005KT 07/M01 A3018 RMK AO1 SLP246
T00721011 58016





000
SAUS45 KGGW 301949
MTRJDN
METAR KJDN 301948Z AUTO 34006KT 07/M02 A3020 RMK AO1 SLP253
T00671017





000
SAUS45 KGGW 301849
MTRJDN
METAR KJDN 301848Z AUTO 27004KT 05/M01 A3022 RMK AO1 SLP261
T00501006





000
SAUS45 KGGW 301749
MTRJDN
METAR KJDN 301748Z AUTO 31005KT 04/M02 A3023 RMK AO1 SLP263
T00391017 10039 21056 50008





000
SAUS45 KGGW 301649
MTRJDN
METAR KJDN 301648Z AUTO 27007KT 01/M02 A3023 RMK AO1 SLP267
T00111022





000
SAUS45 KGGW 301549
MTRJDN
METAR KJDN 301548Z AUTO 29004KT M02/M04 A3022 RMK AO1 SLP266
T10221039





000
SAUS45 KGGW 301449
MTRJDN
METAR KJDN 301448Z AUTO 29007KT M04/M06 A3020 RMK AO1 SLP263
T10391056 53009





000
SAUS45 KGGW 301349
MTRJDN
METAR KJDN 301348Z AUTO 28008KT M04/M05 A3019 RMK AO1 SLP256
T10391050





000
SAUS45 KGGW 301249
MTRJDN
METAR KJDN 301248Z AUTO 28003KT M04/M06 A3017 RMK AO1 SLP250
T10441061





000
SAUS45 KGGW 301149
MTRJDN
METAR KJDN 301148Z AUTO 00000KT M04/M06 A3017 RMK AO1 SLP249
T10441056 10000 21050 53002





000
SAUS45 KGGW 301049
MTRJDN
METAR KJDN 301048Z AUTO 27006KT M02/M04 A3017 RMK AO1 SLP243
T10221039





000
SAUS45 KGGW 300949
MTRJDN
METAR KJDN 300948Z AUTO 31007KT M02/M04 A3016 RMK AO1 SLP238
T10221039





000
SAUS45 KGGW 300849
MTRJDN
METAR KJDN 300848Z AUTO 26003KT M03/M05 A3017 RMK AO1 SLP241
T10331050 56008





000
SAUS45 KGGW 300749
MTRJDN
METAR KJDN 300748Z AUTO 28003KT M02/M04 A3017 RMK AO1 SLP242
T10221039





000
SAUS45 KGGW 300649
MTRJDN
METAR KJDN 300648Z AUTO 28004KT M02/M03 A3018 RMK AO1 SLP249
T10171033 400721078





000
SAUS45 KGGW 300549
MTRJDN
METAR KJDN 300548Z AUTO 30004KT 00/M04 A3019 RMK AO1 SLP252
T00001039 10044 21006 56009





000
SAUS45 KGGW 300449
MTRJDN
METAR KJDN 300448Z AUTO 25003KT 01/M03 A3019 RMK AO1 SLP256
T00061033





000
SAUS45 KGGW 300349
MTRJDN
METAR KJDN 300348Z AUTO 00000KT 00/M04 A3020 RMK AO1 SLP264
T00001039





000
SAUS45 KGGW 300249
MTRJDN
METAR KJDN 300248Z AUTO 00000KT 01/M04 A3022 RMK AO1 SLP272
T00061039 56015





000
SAUS45 KGGW 300149
MTRJDN
METAR KJDN 300148Z AUTO VRB03KT 01/M04 A3023 RMK AO1 SLP276
T00111039





000
SAUS45 KGGW 300049
MTRJDN
METAR KJDN 300048Z AUTO 14004KT 02/M04 A3025 RMK AO1 SLP280
T00171039





000
SAUS45 KGGW 292349
MTRJDN
METAR KJDN 292348Z AUTO 00000KT 04/M03 A3027 RMK AO1 SLP283
T00441028 10072 20017 55011





000
SAUS45 KGGW 292249
MTRJDN
METAR KJDN 292248Z AUTO 18010KT 06/M03 A3026 RMK AO1 SLP280
T00561033





000
SAUS45 KGGW 292149
MTRJDN
METAR KJDN 292148Z AUTO 17012KT 07/M03 A3028 RMK AO1 SLP283
T00721028





000
SAUS45 KGGW 292049
MTRJDN
METAR KJDN 292048Z AUTO 19012KT 07/M03 A3030 RMK AO1 SLP291
T00721028 58033





000
SAUS45 KGGW 291949
MTRJDN
METAR KJDN 291948Z AUTO 19008KT 07/M02 A3034 RMK AO1 SLP303
T00671022





000
SAUS45 KGGW 291849
MTRJDN
METAR KJDN 291848Z AUTO 15006KT 05/00 A3038 RMK AO1 SLP318 T00500000





000
SAUS45 KGGW 291749
MTRJDN
METAR KJDN 291748Z AUTO 10003KT 02/M01 A3041 RMK AO1 SLP332
T00171011 10017 21078 58008





000
SAUS45 KGGW 291649
MTRJDN
METAR KJDN 291648Z AUTO 00000KT M02/M03 A3042 RMK AO1 SLP340
T10171028





000
SAUS45 KGGW 291549
MTRJDN
METAR KJDN 291548Z AUTO 00000KT M04/M06 A3043 RMK AO1 SLP346
T10441056





000
SAUS45 KGGW 291449
MTRJDN
METAR KJDN 291448Z AUTO 00000KT M07/M09 A3043 RMK AO1 SLP348
T10721089 56001





000
SAUS45 KGGW 291349
MTRJDN
METAR KJDN 291348Z AUTO 00000KT M07/M09 A3043 RMK AO1 SLP348
T10721089





000
SAUS45 KGGW 291249
MTRJDN
METAR KJDN 291248Z AUTO 29003KT M07/M08 A3043 RMK AO1 SLP345
T10671078





000
SAUS45 KGGW 291149
MTRJDN
METAR KJDN 291148Z AUTO 32003KT M07/M08 A3044 RMK AO1 SLP346
T10671083 11028 21072 53005





000
SAUS45 KGGW 291049
MTRJDN
METAR KJDN 291048Z AUTO 00000KT M06/M07 A3043 RMK AO1 SLP340
T10611072





000
SAUS45 KGGW 290949
MTRJDN
METAR KJDN 290948Z AUTO 28005KT M06/M07 A3043 RMK AO1 SLP339
T10611072





000
SAUS45 KGGW 290849
MTRJDN
METAR KJDN 290848Z AUTO 26004KT M05/M06 A3042 RMK AO1 SLP336
T10501061 51008





000
SAUS45 KGGW 290749
MTRJDN
METAR KJDN 290748Z AUTO 30004KT M04/M06 A3042 RMK AO1 SLP335
T10441056





000
SAUS45 KGGW 290649
MTRJDN
METAR KJDN 290648Z AUTO 31005KT M04/M05 A3041 RMK AO1 SLP333
T10391050 400391039





000
SAUS45 KGGW 290549
MTRJDN
METAR KJDN 290548Z AUTO 28006KT M04/M05 A3039 RMK AO1 SLP327
T10391050 10011 21039 53016





000
SAUS45 KGGW 290449
MTRJDN
METAR KJDN 290448Z AUTO 27006KT M03/M04 A3038 RMK AO1 SLP319
T10281039





000
SAUS45 KGGW 290349
MTRJDN
METAR KJDN 290348Z AUTO 29006KT M02/M03 A3036 RMK AO1 SLP311
T10221033





000
SAUS45 KGGW 290249
MTRJDN
METAR KJDN 290248Z AUTO 29006KT M02/M04 A3034 RMK AO1 SLP306
T10221039 51022





000
SAUS45 KGGW 290149
MTRJDN
METAR KJDN 290148Z AUTO 29008KT M01/M02 A3032 RMK AO1 SLP299
T10061022





000
SAUS45 KGGW 290049
MTRJDN
METAR KJDN 290048Z AUTO 30007KT 00/M02 A3030 RMK AO1 SLP289
T00001017





000
SAUS45 KGGW 290049
MTRJDN
METAR KJDN 290048Z AUTO 30007KT 00/M02 A3030 RMK AO1 SLP289
T00001017





000
SAUS45 KGGW 282349
MTRJDN
METAR KJDN 282348Z AUTO 32009KT 01/M02 A3028 RMK AO1 SLP279
T00111017 10039 20011 53030





000
SAUS45 KGGW 282249
MTRJDN
METAR KJDN 282248Z AUTO 31011KT 03/M01 A3024 RMK AO1 SLP263
T00331011





    US Dept of Commerce
    National Oceanic and Atmospheric Administration
    National Weather Service
    1325 East West Highway
    Silver Spring, MD 20910
    Page Author: NWS Internet Services Team
Disclaimer
Information Quality
Credits
Glossary
Privacy Policy
Freedom of Information Act (FOIA)
About Us
Career Opportunities